Centerville, Washington
Current Conditions -  °F | °C
As of 3:53 PM on Wednesday 22 Oct 2014 (Local Time) from KDLS Reporting Station
Overcast Overcast  
Wind Chill: 57°   Ceiling: 7500
Heat Index: 57°   Visibility: 10mi
Dew Point: 52°   Wind: 3mph
Humidity: 83%   Direction: 310°NW
Pressure: 29.71"   Gusts: NA
Location:  45.75°N, 120.91°W
Report Text: KDLS 222253Z AUTO 31003KT 10SM BKN075 OVC090 14/11 A2971 RMK AO2 RAB09E38 SLP061 P0001 T01390111
Loading
Personal Weather Stations






























Interactive Weather Map New forecast layout! Learn more

10-Day Weather Forecast

Advertisements
Track Severe Weather on mobile